createdAt,value
2018-11-25T00:00:22.477Z,277.13
2018-11-25T00:02:51.161Z,144.10
2018-11-25T00:05:20.964Z,91.20
2018-11-25T00:07:51.596Z,125.77
2018-11-25T00:10:25.971Z,75.33
2018-11-25T00:12:54.589Z,92.20
2018-11-25T00:15:24.172Z,111.60
2018-11-25T00:17:52.773Z,195.07
2018-11-25T00:20:21.368Z,168.70
2018-11-25T00:22:50.374Z,132.00
2018-11-25T00:25:19.091Z,128.23
2018-11-25T00:27:49.162Z,161.93
2018-11-25T00:30:17.789Z,90.87
2018-11-25T00:32:46.617Z,98.17
2018-11-25T00:35:19.569Z,117.60
2018-11-25T00:37:48.909Z,125.80
2018-11-25T00:40:16.885Z,147.00
2018-11-25T00:42:45.782Z,92.33
2018-11-25T00:45:17.803Z,128.33
2018-11-25T00:47:46.653Z,75.50
2018-11-25T00:50:15.930Z,101.77
2018-11-25T00:52:47.836Z,89.37
2018-11-25T00:55:19.972Z,64.43
2018-11-25T00:57:48.563Z,162.03
2018-11-25T01:00:18.465Z,117.17
2018-11-25T01:02:51.110Z,72.17
2018-11-25T01:05:21.426Z,82.57
2018-11-25T01:07:52.003Z,61.83
2018-11-25T01:10:20.679Z,69.40
2018-11-25T01:12:49.208Z,66.93
2018-11-25T01:15:21.616Z,68.47
2018-11-25T01:17:50.208Z,62.27
2018-11-25T01:20:20.744Z,68.23
2018-11-25T01:22:50.353Z,64.30
2018-11-25T01:25:18.987Z,76.90
2018-11-25T01:27:47.595Z,71.93
2018-11-25T01:30:16.924Z,67.70
2018-11-25T01:32:46.470Z,61.60
2018-11-25T01:35:21.494Z,65.40
2018-11-25T01:37:50.124Z,67.17
2018-11-25T01:40:19.705Z,66.43
2018-11-25T01:42:49.361Z,76.30
2018-11-25T01:45:18.573Z,106.90
2018-11-25T01:47:48.216Z,91.40
2018-11-25T01:50:18.564Z,103.93
2018-11-25T01:52:47.576Z,79.43
2018-11-25T01:55:17.997Z,91.00
2018-11-25T01:57:56.481Z,94.47
2018-11-25T02:00:25.997Z,75.97
2018-11-25T02:03:02.006Z,116.90
2018-11-25T02:05:42.995Z,77.37
2018-11-25T02:08:12.704Z,83.40
2018-11-25T02:10:41.241Z,66.87
2018-11-25T02:13:09.909Z,69.03
2018-11-25T02:15:40.426Z,60.00
2018-11-25T02:18:13.763Z,63.93
2018-11-25T02:20:48.738Z,68.80
2018-11-25T02:23:21.300Z,85.30
2018-11-25T02:25:50.901Z,127.63
2018-11-25T02:28:20.542Z,121.20
2018-11-25T02:30:50.128Z,175.57
2018-11-25T02:33:19.689Z,58.93
2018-11-25T02:35:52.965Z,72.73
2018-11-25T02:38:22.588Z,137.07
2018-11-25T02:40:51.198Z,108.70
2018-11-25T02:43:26.501Z,67.20
2018-11-25T02:46:00.881Z,79.73
2018-11-25T02:48:29.452Z,69.90
2018-11-25T02:50:58.992Z,95.00
2018-11-25T02:53:27.628Z,178.67
2018-11-25T02:55:56.309Z,128.70
2018-11-25T02:58:26.904Z,114.57
2018-11-25T03:00:55.523Z,101.33
2018-11-25T03:03:24.115Z,118.47
2018-11-25T03:05:52.692Z,85.20
2018-11-25T03:08:21.423Z,83.80
2018-11-25T03:10:57.636Z,94.87
2018-11-25T03:13:26.188Z,74.30
2018-11-25T03:15:54.774Z,84.03
2018-11-25T03:18:23.355Z,54.97
2018-11-25T03:20:53.737Z,90.90
2018-11-25T03:23:22.344Z,103.47
2018-11-25T03:25:50.962Z,65.03
2018-11-25T03:28:19.637Z,95.73
2018-11-25T03:30:48.200Z,162.03
2018-11-25T03:33:22.537Z,251.97
2018-11-25T03:35:51.088Z,195.83
2018-11-25T03:38:19.729Z,210.40
2018-11-25T03:40:49.438Z,75.93
2018-11-25T03:43:19.963Z,114.20
2018-11-25T03:45:48.556Z,95.90
2018-11-25T03:48:17.282Z,62.40
2018-11-25T03:50:45.925Z,119.53
2018-11-25T03:53:14.423Z,84.83
2018-11-25T03:55:42.963Z,141.57
2018-11-25T03:58:12.587Z,105.93
2018-11-25T04:00:42.157Z,91.43
2018-11-25T04:03:12.739Z,86.23
2018-11-25T04:05:41.328Z,134.97
2018-11-25T04:08:10.064Z,96.70
2018-11-25T04:10:38.628Z,67.60
2018-11-25T04:13:11.580Z,90.90
2018-11-25T04:15:41.115Z,103.87
2018-11-25T04:18:10.692Z,120.13
2018-11-25T04:20:39.311Z,134.40
2018-11-25T04:23:09.959Z,249.90
2018-11-25T04:25:43.216Z,192.67
2018-11-25T04:28:11.780Z,145.97
2018-11-25T04:30:40.273Z,120.70
2018-11-25T04:33:12.688Z,80.10
2018-11-25T04:35:41.277Z,109.57
2018-11-25T04:38:15.498Z,110.60
2018-11-25T04:40:44.124Z,176.30
2018-11-25T04:43:12.694Z,82.40
2018-11-25T04:45:42.278Z,162.73
2018-11-25T04:48:17.021Z,152.90
2018-11-25T04:50:51.641Z,185.03
2018-11-25T04:53:20.227Z,119.50
2018-11-25T04:55:48.780Z,115.77
2018-11-25T04:58:18.287Z,279.33
2018-11-25T05:00:47.857Z,186.43
2018-11-25T05:03:17.399Z,246.67
2018-11-25T05:05:51.505Z,287.13
2018-11-25T05:08:20.021Z,273.87
2018-11-25T05:10:53.598Z,222.07
2018-11-25T05:13:22.152Z,274.23
2018-11-25T05:15:50.732Z,229.83
2018-11-25T05:18:24.960Z,208.50
2018-11-25T05:20:56.869Z,250.83
2018-11-25T05:23:25.435Z,196.43
2018-11-25T05:25:53.944Z,254.37
2018-11-25T05:28:22.536Z,192.57
2018-11-25T05:30:51.293Z,126.40
2018-11-25T05:33:19.843Z,164.63
2018-11-25T05:35:49.321Z,119.23
2018-11-25T05:38:18.940Z,86.40
2018-11-25T05:40:47.447Z,86.47
2018-11-25T05:43:17.349Z,84.70
2018-11-25T05:45:45.936Z,70.80
2018-11-25T05:48:14.456Z,68.90
2018-11-25T05:50:44.002Z,60.50
2018-11-25T05:53:15.835Z,73.97
2018-11-25T05:55:44.387Z,64.00
2018-11-25T05:58:13.943Z,72.27
2018-11-25T06:00:42.483Z,68.37
2018-11-25T06:03:12.049Z,73.60
2018-11-25T06:05:40.595Z,61.40
2018-11-25T06:08:12.185Z,59.17
2018-11-25T06:10:40.832Z,63.93
2018-11-25T06:13:10.452Z,65.90
2018-11-25T06:15:47.336Z,63.97
2018-11-25T06:18:17.906Z,60.87
2018-11-25T06:20:48.484Z,55.33
2018-11-25T06:23:17.051Z,58.33
2018-11-25T06:25:50.494Z,58.97
2018-11-25T06:28:19.061Z,66.50
2018-11-25T06:30:49.239Z,59.10
2018-11-25T06:33:17.786Z,61.37
2018-11-25T06:35:49.578Z,61.30
2018-11-25T06:38:21.672Z,55.67
2018-11-25T06:40:52.327Z,57.70
2018-11-25T06:43:20.876Z,62.53
2018-11-25T06:45:51.049Z,58.07
2018-11-25T06:48:20.685Z,64.37
2018-11-25T06:50:49.572Z,77.20
2018-11-25T06:53:19.137Z,63.20
2018-11-25T06:55:47.772Z,68.27
2018-11-25T06:58:21.647Z,59.90
2018-11-25T07:00:56.919Z,58.57
2018-11-25T07:03:32.972Z,56.53
2018-11-25T07:06:06.301Z,56.30
2018-11-25T07:08:47.831Z,58.73
2018-11-25T07:11:16.397Z,55.17
2018-11-25T07:13:44.931Z,51.93
2018-11-25T07:16:14.506Z,52.07
2018-11-25T07:18:44.069Z,52.37
2018-11-25T07:21:14.621Z,50.67
2018-11-25T07:23:43.218Z,48.73
2018-11-25T07:26:15.570Z,44.70
2018-11-25T07:28:44.207Z,45.30
2018-11-25T07:31:12.786Z,46.43
2018-11-25T07:33:41.349Z,42.97
2018-11-25T07:36:12.274Z,42.93
2018-11-25T07:38:40.896Z,43.23
2018-11-25T07:41:09.724Z,41.77
2018-11-25T07:43:39.660Z,43.50
2018-11-25T07:46:08.355Z,43.83
2018-11-25T07:48:41.334Z,51.33
2018-11-25T07:51:10.935Z,56.93
2018-11-25T07:53:39.501Z,52.63
2018-11-25T07:56:09.688Z,52.17
2018-11-25T07:58:38.323Z,47.20
2018-11-25T08:01:06.892Z,48.87
2018-11-25T08:03:35.470Z,45.23
2018-11-25T08:06:04.108Z,38.47
2018-11-25T08:08:32.699Z,43.90
2018-11-25T08:11:05.143Z,48.00
2018-11-25T08:13:34.780Z,41.33
2018-11-25T08:16:03.396Z,47.20
2018-11-25T08:18:31.999Z,44.27
2018-11-25T08:21:00.638Z,74.20
2018-11-25T08:23:29.175Z,39.50
2018-11-25T08:26:02.418Z,56.10
2018-11-25T08:28:31.031Z,55.00
2018-11-25T08:31:01.771Z,50.33
2018-11-25T08:33:30.316Z,47.60
2018-11-25T08:36:01.103Z,50.37
2018-11-25T08:38:29.666Z,52.50
2018-11-25T08:40:58.254Z,61.27
2018-11-25T08:43:27.129Z,61.53
2018-11-25T08:45:55.968Z,48.80
2018-11-25T08:48:24.556Z,75.60
2018-11-25T08:50:53.119Z,69.83
2018-11-25T08:53:22.712Z,91.40
2018-11-25T08:55:51.307Z,66.90
2018-11-25T08:58:20.944Z,62.10
2018-11-25T09:00:49.500Z,53.93
2018-11-25T09:03:18.044Z,55.33
2018-11-25T09:05:50.131Z,41.43
2018-11-25T09:08:18.771Z,37.73
2018-11-25T09:10:47.297Z,42.77
2018-11-25T09:13:15.817Z,35.73
2018-11-25T09:15:44.480Z,40.90
2018-11-25T09:18:14.165Z,39.80
2018-11-25T09:20:43.844Z,34.10
2018-11-25T09:23:12.429Z,32.83
2018-11-25T09:25:44.374Z,33.97
2018-11-25T09:28:12.951Z,31.83
2018-11-25T09:30:43.712Z,37.03
2018-11-25T09:33:12.487Z,44.70
2018-11-25T09:35:41.202Z,45.77
2018-11-25T09:38:09.867Z,50.77
2018-11-25T09:40:38.853Z,55.90
2018-11-25T09:43:07.903Z,58.33
2018-11-25T09:45:38.060Z,76.00
2018-11-25T09:48:07.844Z,74.37
2018-11-25T09:50:36.628Z,91.50
2018-11-25T09:53:05.723Z,84.27
2018-11-25T09:55:40.897Z,96.07
2018-11-25T09:58:09.933Z,90.07
2018-11-25T10:00:43.018Z,78.27
2018-11-25T10:03:12.157Z,91.03
2018-11-25T10:05:41.743Z,86.90
2018-11-25T10:08:10.429Z,92.47
2018-11-25T10:10:40.999Z,85.13
2018-11-25T10:13:09.692Z,85.93
2018-11-25T10:15:38.307Z,80.00
2018-11-25T10:18:07.924Z,79.27
2018-11-25T10:20:39.921Z,98.87
2018-11-25T10:23:08.474Z,62.47
2018-11-25T10:25:37.072Z,56.60
2018-11-25T10:28:07.673Z,44.13
2018-11-25T10:30:36.315Z,41.80
2018-11-25T10:33:07.861Z,44.33
2018-11-25T10:35:36.461Z,42.13
2018-11-25T10:38:05.502Z,32.50
2018-11-25T10:40:35.156Z,30.67
2018-11-25T10:43:03.821Z,36.97
2018-11-25T10:45:32.540Z,32.90
2018-11-25T10:48:02.187Z,34.67
2018-11-25T10:50:33.974Z,36.93
2018-11-25T10:53:03.649Z,37.50
2018-11-25T10:55:34.270Z,35.13
2018-11-25T10:58:02.871Z,34.30
2018-11-25T11:00:38.975Z,35.23
2018-11-25T11:03:17.568Z,31.70
2018-11-25T11:05:59.176Z,32.03
2018-11-25T11:08:29.483Z,30.70
2018-11-25T11:11:00.147Z,30.70
2018-11-25T11:13:30.368Z,25.67
2018-11-25T11:15:59.026Z,25.07
2018-11-25T11:18:27.579Z,30.17
2018-11-25T11:20:58.219Z,41.57
2018-11-25T11:23:26.814Z,22.70
2018-11-25T11:25:56.540Z,24.97
2018-11-25T11:28:29.013Z,23.63
2018-11-25T11:30:57.607Z,27.67
2018-11-25T11:33:26.194Z,25.27
2018-11-25T11:35:55.776Z,26.47
2018-11-25T11:38:25.457Z,28.73
2018-11-25T11:40:56.097Z,30.67
2018-11-25T11:43:25.683Z,28.73
2018-11-25T11:45:54.359Z,27.10
2018-11-25T11:48:22.947Z,28.17
2018-11-25T11:50:51.532Z,33.53
2018-11-25T11:53:20.313Z,32.47
2018-11-25T11:55:50.025Z,35.77
2018-11-25T11:58:18.600Z,34.40
2018-11-25T12:00:47.403Z,33.80
2018-11-25T12:03:17.051Z,31.87
2018-11-25T12:05:45.809Z,35.83
2018-11-25T12:08:14.429Z,30.40
2018-11-25T12:10:44.059Z,34.73
2018-11-25T12:13:14.890Z,36.03
2018-11-25T12:15:44.127Z,46.63
2018-11-25T12:18:15.244Z,46.07
2018-11-25T12:20:44.303Z,52.57
2018-11-25T12:23:14.913Z,54.73
2018-11-25T12:25:44.743Z,52.37
2018-11-25T12:28:13.352Z,69.27
2018-11-25T12:30:45.553Z,61.87
2018-11-25T12:33:15.196Z,56.67
2018-11-25T12:35:43.792Z,54.03
2018-11-25T12:38:12.478Z,53.40
2018-11-25T12:40:41.084Z,52.47
2018-11-25T12:43:09.669Z,49.67
2018-11-25T12:45:38.247Z,58.50
2018-11-25T12:48:07.764Z,56.53
2018-11-25T12:50:37.284Z,47.47
2018-11-25T12:53:07.859Z,50.67
2018-11-25T12:55:36.428Z,45.27
2018-11-25T12:58:16.416Z,48.53
2018-11-25T13:00:47.662Z,47.60
2018-11-25T13:03:17.807Z,47.80
2018-11-25T13:05:46.665Z,44.67
2018-11-25T13:08:15.974Z,45.73
2018-11-25T13:10:44.733Z,41.77
2018-11-25T13:13:16.703Z,47.43
2018-11-25T13:15:48.304Z,45.57
2018-11-25T13:18:22.272Z,43.53
2018-11-25T13:20:54.759Z,42.27
2018-11-25T13:23:24.361Z,42.53
2018-11-25T13:25:52.941Z,45.47
2018-11-25T13:28:21.438Z,38.60
2018-11-25T13:30:50.006Z,38.73
2018-11-25T13:33:19.630Z,41.10
2018-11-25T13:35:48.403Z,38.83
2018-11-25T13:38:17.026Z,35.70
2018-11-25T13:40:45.549Z,36.37
2018-11-25T13:43:18.528Z,37.03
2018-11-25T13:45:47.051Z,36.70
2018-11-25T13:48:16.675Z,39.27
2018-11-25T13:50:45.308Z,43.03
2018-11-25T13:53:19.631Z,40.93
2018-11-25T13:55:48.238Z,43.67
2018-11-25T13:58:17.882Z,46.13
2018-11-25T14:00:51.000Z,46.30
2018-11-25T14:03:26.644Z,51.47
2018-11-25T14:05:57.305Z,45.27
2018-11-25T14:08:25.791Z,47.07
2018-11-25T14:11:00.217Z,54.03
2018-11-25T14:13:28.743Z,48.47
2018-11-25T14:15:57.408Z,48.07
2018-11-25T14:18:25.931Z,49.53
2018-11-25T14:20:55.489Z,47.85
2018-11-25T14:23:25.098Z,45.87
2018-11-25T14:25:56.117Z,45.30
2018-11-25T14:28:24.808Z,49.23
2018-11-25T14:30:53.331Z,47.43
2018-11-25T14:33:21.922Z,52.43
2018-11-25T14:35:51.492Z,53.37
2018-11-25T14:38:23.514Z,48.57
2018-11-25T14:40:55.550Z,53.23
2018-11-25T14:43:24.088Z,55.43
2018-11-25T14:45:56.879Z,53.17
2018-11-25T14:48:25.502Z,60.50
2018-11-25T14:50:54.082Z,56.97
2018-11-25T14:53:24.182Z,53.90
2018-11-25T14:55:53.874Z,58.43
2018-11-25T14:58:22.378Z,61.53
2018-11-25T15:00:51.288Z,63.43
2018-11-25T15:03:19.604Z,68.10
2018-11-25T15:05:54.511Z,66.37
2018-11-25T15:08:24.790Z,74.60
2018-11-25T15:10:54.441Z,68.77
2018-11-25T15:13:22.976Z,83.03
2018-11-25T15:15:53.747Z,81.23
2018-11-25T15:18:22.202Z,80.50
2018-11-25T15:20:51.261Z,80.43
2018-11-25T15:23:23.579Z,80.80
2018-11-25T15:25:54.070Z,84.53
2018-11-25T15:28:28.028Z,84.50
2018-11-25T15:30:56.702Z,75.13
2018-11-25T15:33:28.484Z,69.93
2018-11-25T15:35:57.090Z,63.47
2018-11-25T15:38:25.670Z,76.70
2018-11-25T15:40:54.263Z,68.27
2018-11-25T15:43:22.868Z,81.07
2018-11-25T15:45:51.543Z,71.33
2018-11-25T15:48:21.837Z,72.70
2018-11-25T15:50:52.671Z,80.13
2018-11-25T15:53:21.216Z,84.17
2018-11-25T15:55:57.120Z,75.60
2018-11-25T15:58:26.799Z,70.30
2018-11-25T16:00:55.640Z,74.63
2018-11-25T16:03:25.485Z,78.77
2018-11-25T16:06:00.604Z,72.00
2018-11-25T16:08:38.020Z,72.30
2018-11-25T16:11:00.759Z,66.70
2018-11-25T16:13:29.487Z,67.50
2018-11-25T16:16:01.389Z,61.83
2018-11-25T16:18:30.038Z,56.07
2018-11-25T16:20:58.690Z,48.83
2018-11-25T16:23:27.216Z,44.77
2018-11-25T16:25:59.304Z,44.83
2018-11-25T16:28:44.814Z,52.30
2018-11-25T16:31:13.402Z,51.87
2018-11-25T16:33:42.024Z,50.40
2018-11-25T16:36:15.650Z,50.77
2018-11-25T16:38:45.276Z,53.00
2018-11-25T16:41:13.870Z,48.00
2018-11-25T16:43:42.418Z,48.50
2018-11-25T16:46:16.628Z,47.17
2018-11-25T16:48:46.214Z,49.30
2018-11-25T16:51:14.716Z,49.63
2018-11-25T16:53:45.434Z,51.17
2018-11-25T16:56:17.757Z,48.57
2018-11-25T16:58:46.314Z,41.73
2018-11-25T17:01:14.868Z,39.47
2018-11-25T17:03:44.830Z,37.93
2018-11-25T17:06:14.719Z,40.93
2018-11-25T17:08:45.631Z,42.97
2018-11-25T17:11:15.224Z,44.73
2018-11-25T17:13:44.892Z,42.30
2018-11-25T17:16:13.464Z,43.80
2018-11-25T17:18:42.091Z,41.20
2018-11-25T17:21:12.698Z,40.93
2018-11-25T17:23:41.365Z,39.57
2018-11-25T17:26:09.869Z,43.20
2018-11-25T17:28:38.492Z,52.80
2018-11-25T17:31:09.081Z,53.53
2018-11-25T17:33:38.783Z,47.03
2018-11-25T17:36:07.311Z,54.03
2018-11-25T17:38:47.903Z,50.13
2018-11-25T17:41:16.484Z,45.50
2018-11-25T17:43:46.049Z,43.77
2018-11-25T17:46:14.615Z,43.43
2018-11-25T17:48:44.085Z,41.13
2018-11-25T17:51:13.733Z,48.10
2018-11-25T17:53:43.274Z,45.87
2018-11-25T17:56:11.918Z,51.73
2018-11-25T17:58:41.568Z,61.80
2018-11-25T18:01:10.522Z,54.60
2018-11-25T18:03:42.416Z,55.43
2018-11-25T18:06:11.244Z,56.00
2018-11-25T18:08:43.134Z,92.13
2018-11-25T18:11:11.829Z,77.60
2018-11-25T18:13:41.356Z,64.07
2018-11-25T18:16:11.215Z,71.83
2018-11-25T18:18:56.418Z,76.17
2018-11-25T18:21:26.118Z,106.27
2018-11-25T18:23:54.734Z,74.87
2018-11-25T18:26:23.291Z,78.20
2018-11-25T18:28:51.820Z,89.83
2018-11-25T18:31:21.404Z,92.00
2018-11-25T18:33:49.980Z,80.37
2018-11-25T18:36:25.168Z,73.27
2018-11-25T18:38:53.736Z,59.87
2018-11-25T18:41:22.373Z,84.53
2018-11-25T18:43:54.017Z,84.80
2018-11-25T18:46:22.617Z,79.83
2018-11-25T18:48:53.623Z,62.43
2018-11-25T18:51:22.644Z,133.90
2018-11-25T18:53:51.639Z,98.37
2018-11-25T18:56:20.183Z,84.30
2018-11-25T18:58:48.756Z,82.10
2018-11-25T19:01:24.692Z,63.30
2018-11-25T19:03:53.371Z,127.70
2018-11-25T19:06:21.881Z,95.80
2018-11-25T19:08:52.483Z,95.97
2018-11-25T19:11:21.044Z,76.40
2018-11-25T19:13:49.676Z,170.73
2018-11-25T19:16:18.292Z,91.60
2018-11-25T19:18:46.841Z,104.47
2018-11-25T19:21:16.348Z,111.97
2018-11-25T19:23:45.913Z,128.27
2018-11-25T19:26:16.484Z,115.43
2018-11-25T19:28:48.862Z,99.83
2018-11-25T19:31:17.368Z,129.67
2018-11-25T19:33:53.620Z,124.03
2018-11-25T19:36:22.160Z,107.63
2018-11-25T19:38:50.799Z,92.60
2018-11-25T19:41:23.984Z,139.50
2018-11-25T19:43:55.927Z,93.93
2018-11-25T19:46:24.484Z,117.07
2018-11-25T19:48:55.213Z,135.87
2018-11-25T19:51:23.764Z,119.83
2018-11-25T19:53:52.365Z,122.67
2018-11-25T19:56:20.988Z,99.50
2018-11-25T19:58:56.975Z,94.67
2018-11-25T20:01:26.743Z,110.37
2018-11-25T20:03:55.616Z,111.90
2018-11-25T20:06:24.200Z,105.77
2018-11-25T20:08:59.288Z,92.73
2018-11-25T20:11:27.911Z,90.20
2018-11-25T20:13:56.964Z,119.93
2018-11-25T20:16:31.336Z,104.87
2018-11-25T20:19:12.283Z,145.43
2018-11-25T20:21:46.072Z,99.67
2018-11-25T20:24:15.636Z,102.63
2018-11-25T20:26:50.636Z,116.60
2018-11-25T20:29:19.245Z,119.73
2018-11-25T20:31:53.998Z,145.87
2018-11-25T20:34:22.542Z,108.27
2018-11-25T20:36:53.113Z,136.30
2018-11-25T20:39:27.146Z,119.47
2018-11-25T20:41:56.832Z,202.07
2018-11-25T20:44:26.403Z,105.93
2018-11-25T20:47:02.291Z,110.67
2018-11-25T20:49:30.920Z,99.80
2018-11-25T20:52:10.835Z,103.37
2018-11-25T20:54:39.424Z,105.43
2018-11-25T20:57:08.018Z,123.87
2018-11-25T20:59:37.651Z,130.00
2018-11-25T21:02:06.252Z,131.03
2018-11-25T21:04:35.896Z,90.40
2018-11-25T21:07:04.472Z,137.33
2018-11-25T21:09:33.016Z,95.57
2018-11-25T21:12:01.628Z,92.13
2018-11-25T21:14:30.190Z,81.10
2018-11-25T21:17:02.240Z,79.57
2018-11-25T21:19:30.779Z,90.73
2018-11-25T21:21:59.375Z,76.90
2018-11-25T21:24:28.006Z,72.00
2018-11-25T21:26:58.540Z,72.60
2018-11-25T21:29:28.174Z,88.17
2018-11-25T21:31:56.747Z,76.07
2018-11-25T21:34:25.376Z,83.33
2018-11-25T21:36:53.914Z,79.97
2018-11-25T21:39:22.517Z,74.57
2018-11-25T21:41:51.111Z,74.00
2018-11-25T21:44:20.673Z,76.33
2018-11-25T21:46:50.204Z,77.73
2018-11-25T21:49:18.765Z,73.93
2018-11-25T21:51:49.296Z,78.40
2018-11-25T21:54:17.900Z,70.40
2018-11-25T21:56:47.502Z,74.37
2018-11-25T21:59:16.133Z,72.93
2018-11-25T22:01:44.665Z,70.13
2018-11-25T22:04:13.227Z,70.20
2018-11-25T22:06:41.788Z,67.57
2018-11-25T22:09:12.429Z,67.93
2018-11-25T22:11:44.697Z,73.53
2018-11-25T22:14:13.211Z,68.67
2018-11-25T22:16:41.812Z,74.70
2018-11-25T22:19:28.851Z,76.43
2018-11-25T22:21:57.451Z,62.93
2018-11-25T22:24:26.010Z,69.63
2018-11-25T22:26:55.675Z,68.67
2018-11-25T22:29:25.532Z,66.73
2018-11-25T22:31:54.024Z,73.10
2018-11-25T22:34:29.912Z,63.03
2018-11-25T22:36:58.371Z,66.00
2018-11-25T22:39:28.027Z,65.00
2018-11-25T22:41:56.570Z,60.93
2018-11-25T22:44:25.545Z,61.50
2018-11-25T22:46:56.137Z,54.20
2018-11-25T22:49:25.717Z,63.73
2018-11-25T22:51:56.323Z,58.33
2018-11-25T22:54:25.920Z,63.90
2018-11-25T22:56:54.452Z,64.73
2018-11-25T22:59:23.976Z,62.33
2018-11-25T23:01:53.599Z,61.47
2018-11-25T23:04:36.368Z,64.07
2018-11-25T23:07:05.019Z,61.53
2018-11-25T23:09:33.635Z,60.90
2018-11-25T23:12:04.208Z,58.67
2018-11-25T23:14:32.776Z,57.87
2018-11-25T23:17:04.443Z,59.30
2018-11-25T23:19:33.997Z,60.97
2018-11-25T23:22:02.581Z,59.03
2018-11-25T23:24:31.127Z,55.33
2018-11-25T23:27:01.697Z,59.03
2018-11-25T23:29:31.198Z,53.23
2018-11-25T23:32:02.974Z,55.83
2018-11-25T23:34:32.500Z,56.53
2018-11-25T23:37:02.087Z,59.23
2018-11-25T23:39:32.664Z,52.70
2018-11-25T23:42:02.327Z,56.57
2018-11-25T23:44:33.013Z,55.53
2018-11-25T23:47:01.720Z,52.23
2018-11-25T23:49:30.312Z,55.30
2018-11-25T23:51:58.965Z,53.50
2018-11-25T23:54:27.556Z,54.13
2018-11-25T23:56:56.108Z,58.17
2018-11-25T23:59:28.624Z,56.80
